createdAt,value
2022-09-18T00:01:18.231Z,31.00
2022-09-18T00:03:47.299Z,31.55
2022-09-18T00:06:17.837Z,29.30
2022-09-18T00:08:45.942Z,27.42
2022-09-18T00:11:15.180Z,29.65
2022-09-18T00:13:47.185Z,33.30
2022-09-18T00:16:15.903Z,28.10
2022-09-18T00:18:44.045Z,26.58
2022-09-18T00:21:24.640Z,25.98
2022-09-18T00:23:55.005Z,26.17
2022-09-18T00:26:22.548Z,26.23
2022-09-18T00:28:49.810Z,26.38
2022-09-18T00:31:19.432Z,26.40
2022-09-18T00:33:47.023Z,25.90
2022-09-18T00:36:16.605Z,26.40
2022-09-18T00:38:45.574Z,26.83
2022-09-18T00:41:25.263Z,26.65
2022-09-18T00:43:54.557Z,26.15
2022-09-18T00:46:27.006Z,25.85
2022-09-18T00:49:14.385Z,26.50
2022-09-18T00:51:42.150Z,26.05
2022-09-18T00:54:19.932Z,25.58
2022-09-18T00:56:49.166Z,26.42
2022-09-18T00:59:21.395Z,25.77
2022-09-18T01:01:48.934Z,26.67
2022-09-18T01:04:16.232Z,25.45
2022-09-18T01:07:06.399Z,26.45
2022-09-18T01:10:11.405Z,25.17
2022-09-18T01:12:46.879Z,24.80
2022-09-18T01:15:35.032Z,25.50
2022-09-18T01:18:15.376Z,25.73
2022-09-18T01:21:20.185Z,24.65
2022-09-18T01:24:28.362Z,25.10
2022-09-18T01:27:02.122Z,24.42
2022-09-18T01:29:50.187Z,25.38
2022-09-18T01:32:47.747Z,25.52
2022-09-18T01:35:40.560Z,24.35
2022-09-18T01:38:25.448Z,24.63
2022-09-18T01:40:55.421Z,24.80
2022-09-18T01:43:25.027Z,25.30
2022-09-18T01:45:54.967Z,24.85
2022-09-18T01:48:34.412Z,23.98
2022-09-18T01:51:08.149Z,24.83
2022-09-18T01:53:41.851Z,24.48
2022-09-18T01:56:36.420Z,22.98
2022-09-18T01:59:09.019Z,22.92
2022-09-18T02:01:38.062Z,23.23
2022-09-18T02:04:11.782Z,24.17
2022-09-18T02:06:47.046Z,21.88
2022-09-18T02:09:14.340Z,22.83
2022-09-18T02:11:45.194Z,21.33
2022-09-18T02:14:16.893Z,23.00
2022-09-18T02:17:10.148Z,21.85
2022-09-18T02:19:43.331Z,22.98
2022-09-18T02:22:14.042Z,22.65
2022-09-18T02:24:44.864Z,21.77
2022-09-18T02:27:14.172Z,23.00
2022-09-18T02:29:43.113Z,22.13
2022-09-18T02:32:10.436Z,23.10
2022-09-18T02:34:37.674Z,21.58
2022-09-18T02:37:21.426Z,21.33
2022-09-18T02:40:24.116Z,21.92
2022-09-18T02:43:09.141Z,21.30
2022-09-18T02:45:58.174Z,21.05
2022-09-18T02:48:31.115Z,21.15
2022-09-18T02:51:07.291Z,24.00
2022-09-18T02:53:57.921Z,22.52
2022-09-18T02:56:25.083Z,21.58
2022-09-18T02:58:59.208Z,21.88
2022-09-18T03:01:27.609Z,21.45
2022-09-18T03:03:54.942Z,20.95
2022-09-18T03:06:24.830Z,20.63
2022-09-18T03:08:52.341Z,21.75
2022-09-18T03:11:19.623Z,21.42
2022-09-18T03:13:46.768Z,21.67
2022-09-18T03:16:14.029Z,20.48
2022-09-18T03:18:41.393Z,19.85
2022-09-18T03:21:08.624Z,20.05
2022-09-18T03:23:35.865Z,21.38
2022-09-18T03:26:03.212Z,20.42
2022-09-18T03:28:33.706Z,19.38
2022-09-18T03:31:01.574Z,20.38
2022-09-18T03:33:28.896Z,19.17
2022-09-18T03:35:56.206Z,20.05
2022-09-18T03:38:23.355Z,19.83
2022-09-18T03:40:50.608Z,20.33
2022-09-18T03:43:18.419Z,20.25
2022-09-18T03:45:45.667Z,20.20
2022-09-18T03:48:12.868Z,20.08
2022-09-18T03:50:40.127Z,19.38
2022-09-18T03:53:09.118Z,19.77
2022-09-18T03:55:37.539Z,19.65
2022-09-18T03:58:08.181Z,19.20
2022-09-18T04:00:36.526Z,20.73
2022-09-18T04:03:04.090Z,19.88
2022-09-18T04:05:31.877Z,20.30
2022-09-18T04:07:59.708Z,20.27
2022-09-18T04:10:27.465Z,20.45
2022-09-18T04:12:55.489Z,20.88
2022-09-18T04:15:22.972Z,21.15
2022-09-18T04:17:50.958Z,22.20
2022-09-18T04:20:19.341Z,21.95
2022-09-18T04:22:46.499Z,23.08
2022-09-18T04:25:13.915Z,24.40
2022-09-18T04:27:41.235Z,23.15
2022-09-18T04:30:09.342Z,26.25
2022-09-18T04:32:36.580Z,27.10
2022-09-18T04:35:05.774Z,27.58
2022-09-18T04:37:33.648Z,26.58
2022-09-18T04:40:00.867Z,30.05
2022-09-18T04:42:28.564Z,28.27
2022-09-18T04:44:55.917Z,28.98
2022-09-18T04:47:23.148Z,30.55
2022-09-18T04:49:50.808Z,30.58
2022-09-18T04:52:19.382Z,28.23
2022-09-18T04:54:46.740Z,27.55
2022-09-18T04:57:13.962Z,28.83
2022-09-18T04:59:41.788Z,26.73
2022-09-18T05:02:09.104Z,22.65
2022-09-18T05:04:37.165Z,20.70
2022-09-18T05:07:06.987Z,20.20
2022-09-18T05:09:34.544Z,20.42
2022-09-18T05:12:08.095Z,18.58
2022-09-18T05:14:35.557Z,18.38
2022-09-18T05:17:02.967Z,16.35
2022-09-18T05:19:30.514Z,17.25
2022-09-18T05:21:58.025Z,15.75
2022-09-18T05:24:25.662Z,16.95
2022-09-18T05:26:52.886Z,17.33
2022-09-18T05:29:20.289Z,18.77
2022-09-18T05:31:47.881Z,17.85
2022-09-18T05:34:17.829Z,16.77
2022-09-18T05:36:47.936Z,18.38
2022-09-18T05:39:17.574Z,18.13
2022-09-18T05:41:51.450Z,18.20
2022-09-18T05:44:20.155Z,17.38
2022-09-18T05:46:48.489Z,17.58
2022-09-18T05:49:17.470Z,16.60
2022-09-18T05:52:15.180Z,17.10
2022-09-18T05:54:42.815Z,16.08
2022-09-18T05:57:10.079Z,13.70
2022-09-18T05:59:37.433Z,14.02
2022-09-18T06:02:08.934Z,13.18
2022-09-18T06:04:36.446Z,14.40
2022-09-18T06:07:04.475Z,13.63
2022-09-18T06:09:32.146Z,13.02
2022-09-18T06:11:59.455Z,13.65
2022-09-18T06:14:27.207Z,13.45
2022-09-18T06:16:55.630Z,12.80
2022-09-18T06:19:22.719Z,11.15
2022-09-18T06:21:51.342Z,10.75
2022-09-18T06:24:18.781Z,11.75
2022-09-18T06:26:52.202Z,12.15
2022-09-18T06:29:19.577Z,10.75
2022-09-18T06:31:46.867Z,11.85
2022-09-18T06:34:22.743Z,11.52
2022-09-18T06:36:52.281Z,9.68
2022-09-18T06:39:21.495Z,9.65
2022-09-18T06:41:49.717Z,10.68
2022-09-18T06:44:16.995Z,9.45
2022-09-18T06:46:44.417Z,8.65
2022-09-18T06:49:12.708Z,8.70
2022-09-18T06:51:40.754Z,8.77
2022-09-18T06:54:07.937Z,8.82
2022-09-18T06:56:35.374Z,8.85
2022-09-18T06:59:02.795Z,9.10
2022-09-18T07:01:30.404Z,7.15
2022-09-18T07:03:57.612Z,8.00
2022-09-18T07:06:24.815Z,7.18
2022-09-18T07:08:53.517Z,8.00
2022-09-18T07:11:20.989Z,7.35
2022-09-18T07:13:48.469Z,8.05
2022-09-18T07:16:16.099Z,7.60
2022-09-18T07:18:46.119Z,7.03
2022-09-18T07:21:13.407Z,7.03
2022-09-18T07:23:40.604Z,7.07
2022-09-18T07:26:07.799Z,6.43
2022-09-18T07:28:35.035Z,7.65
2022-09-18T07:31:04.041Z,6.90
2022-09-18T07:33:32.492Z,6.70
2022-09-18T07:36:00.922Z,6.32
2022-09-18T07:38:28.342Z,6.78
2022-09-18T07:40:55.591Z,6.90
2022-09-18T07:43:23.024Z,6.90
2022-09-18T07:45:50.160Z,6.30
2022-09-18T07:48:18.039Z,7.50
2022-09-18T07:50:46.543Z,7.93
2022-09-18T07:53:13.829Z,6.15
2022-09-18T07:55:45.337Z,5.72
2022-09-18T07:58:12.896Z,5.72
2022-09-18T08:00:40.727Z,5.57
2022-09-18T08:03:11.812Z,6.78
2022-09-18T08:05:40.420Z,6.38
2022-09-18T08:08:10.159Z,6.25
2022-09-18T08:10:37.444Z,5.68
2022-09-18T08:13:05.539Z,5.60
2022-09-18T08:15:34.080Z,6.40
2022-09-18T08:18:01.338Z,6.40
2022-09-18T08:20:28.728Z,6.40
2022-09-18T08:22:55.992Z,6.63
2022-09-18T08:25:23.294Z,5.53
2022-09-18T08:27:50.551Z,6.63
2022-09-18T08:30:17.962Z,5.13
2022-09-18T08:32:45.316Z,4.90
2022-09-18T08:35:12.672Z,4.90
2022-09-18T08:37:47.411Z,4.38
2022-09-18T08:40:16.723Z,4.45
2022-09-18T08:43:12.385Z,27.05
2022-09-18T08:46:06.144Z,4.55
2022-09-18T08:48:36.973Z,4.47
2022-09-18T08:51:18.673Z,4.60
2022-09-18T08:53:50.976Z,4.90
2022-09-18T08:56:23.900Z,4.22
2022-09-18T08:59:33.094Z,3.50
2022-09-18T09:02:45.392Z,3.75
2022-09-18T09:05:15.269Z,3.90
2022-09-18T09:08:04.027Z,4.20
2022-09-18T09:11:01.958Z,3.90
2022-09-18T09:14:05.303Z,3.20
2022-09-18T09:16:44.572Z,2.80
2022-09-18T09:19:23.732Z,2.85
2022-09-18T09:22:10.845Z,2.95
2022-09-18T09:25:07.558Z,2.88
2022-09-18T09:27:45.207Z,3.60
2022-09-18T09:30:21.452Z,2.45
2022-09-18T09:33:21.687Z,2.40
2022-09-18T09:35:51.952Z,2.35
2022-09-18T09:38:40.495Z,3.80
2022-09-18T09:50:36.695Z,2.60
2022-09-18T09:53:07.355Z,2.50
2022-09-18T09:55:44.620Z,2.28
2022-09-18T09:58:34.179Z,2.80
2022-09-18T10:01:15.566Z,2.78
2022-09-18T10:03:55.379Z,3.38
2022-09-18T10:06:41.010Z,2.10
2022-09-18T10:09:19.687Z,2.20
2022-09-18T10:12:19.146Z,2.53
2022-09-18T10:14:48.472Z,1.98
2022-09-18T10:17:18.774Z,2.40
2022-09-18T10:19:46.947Z,2.50
2022-09-18T10:22:17.843Z,3.10
2022-09-18T10:24:55.699Z,2.20
2022-09-18T10:27:23.466Z,2.75
2022-09-18T10:29:54.139Z,2.40
2022-09-18T10:32:33.748Z,2.35
2022-09-18T10:35:01.124Z,3.03
2022-09-18T10:37:28.328Z,2.35
2022-09-18T10:40:00.159Z,2.17
2022-09-18T10:42:29.039Z,7.05
2022-09-18T10:45:01.729Z,2.00
2022-09-18T10:47:32.451Z,5.53
2022-09-18T10:50:06.408Z,2.20
2022-09-18T10:52:43.815Z,3.03
2022-09-18T10:55:16.742Z,2.03
2022-09-18T10:57:49.997Z,1.75
2022-09-18T11:00:20.214Z,2.10
2022-09-18T11:02:50.215Z,1.55
2022-09-18T11:05:53.909Z,1.65
2022-09-18T11:08:25.165Z,2.08
2022-09-18T11:11:00.458Z,4.38
2022-09-18T11:13:28.939Z,1.98
2022-09-18T11:16:02.375Z,2.08
2022-09-18T11:18:31.580Z,1.90
2022-09-18T11:21:03.039Z,2.33
2022-09-18T11:23:32.490Z,2.80
2022-09-18T11:26:12.321Z,2.45
2022-09-18T11:28:41.862Z,2.17
2022-09-18T11:31:18.803Z,2.42
2022-09-18T11:33:51.952Z,1.92
2022-09-18T11:36:32.050Z,1.80
2022-09-18T11:39:00.524Z,2.40
2022-09-18T11:41:35.266Z,1.90
2022-09-18T11:44:14.975Z,1.70
2022-09-18T11:47:18.240Z,2.08
2022-09-18T11:49:50.653Z,2.20
2022-09-18T11:52:44.178Z,1.75
2022-09-18T11:55:16.581Z,1.80
2022-09-18T11:58:00.268Z,1.90
2022-09-18T12:00:36.545Z,2.15
2022-09-18T12:03:22.980Z,2.13
2022-09-18T12:06:01.088Z,3.13
2022-09-18T12:09:15.504Z,1.98
2022-09-18T12:11:57.059Z,2.03
2022-09-18T12:14:32.410Z,2.25
2022-09-18T12:17:13.011Z,2.30
2022-09-18T12:19:41.104Z,2.22
2022-09-18T12:22:31.398Z,3.22
2022-09-18T12:24:58.874Z,1.92
2022-09-18T12:27:46.331Z,2.40
2022-09-18T12:30:20.203Z,2.10
2022-09-18T12:33:13.255Z,3.03
2022-09-18T12:36:21.562Z,4.45
2022-09-18T12:39:20.665Z,2.35
2022-09-18T12:41:56.177Z,3.65
2022-09-18T12:44:57.927Z,1.92
2022-09-18T12:47:57.371Z,1.90
2022-09-18T12:50:46.174Z,2.10
2022-09-18T12:53:26.628Z,1.95
2022-09-18T12:56:06.825Z,2.50
2022-09-18T12:58:49.820Z,3.63
2022-09-18T13:01:31.719Z,1.95
2022-09-18T13:04:25.612Z,2.45
2022-09-18T13:07:01.265Z,2.00
2022-09-18T13:09:39.287Z,2.60
2022-09-18T13:12:21.467Z,3.63
2022-09-18T13:14:53.972Z,2.83
2022-09-18T13:17:30.918Z,3.20
2022-09-18T13:20:14.091Z,3.58
2022-09-18T13:22:46.115Z,2.60
2022-09-18T13:25:34.464Z,2.72
2022-09-18T13:28:06.475Z,2.03
2022-09-18T13:30:34.334Z,2.25
2022-09-18T13:33:02.744Z,2.42
2022-09-18T13:35:35.500Z,2.25
2022-09-18T13:38:08.904Z,1.80
2022-09-18T13:40:42.800Z,2.15
2022-09-18T13:43:28.475Z,1.90
2022-09-18T13:46:06.084Z,1.98
2022-09-18T13:48:46.525Z,1.73
2022-09-18T13:51:36.188Z,1.98
2022-09-18T13:54:22.346Z,1.80
2022-09-18T13:57:11.468Z,1.52
2022-09-18T13:59:53.514Z,1.50
2022-09-18T14:02:24.188Z,3.53
2022-09-18T14:04:57.555Z,2.10
2022-09-18T14:07:24.829Z,2.30
2022-09-18T14:10:05.841Z,1.98
2022-09-18T14:12:35.126Z,1.60
2022-09-18T14:15:22.922Z,1.48
2022-09-18T14:18:27.320Z,1.65
2022-09-18T14:21:17.774Z,1.88
2022-09-18T14:23:48.086Z,1.63
2022-09-18T14:26:30.490Z,1.73
2022-09-18T14:29:11.570Z,2.35
2022-09-18T14:31:45.359Z,2.28
2022-09-18T14:34:21.624Z,8.23
2022-09-18T14:36:51.135Z,2.13
2022-09-18T14:39:32.711Z,1.98
2022-09-18T14:42:06.927Z,2.28
2022-09-18T14:44:36.921Z,1.70
2022-09-18T14:47:06.531Z,2.33
2022-09-18T14:50:04.598Z,2.05
2022-09-18T14:56:06.694Z,2.28
2022-09-18T14:58:37.164Z,2.05
2022-09-18T15:01:21.259Z,2.45
2022-09-18T15:03:50.440Z,2.33
2022-09-18T15:06:21.551Z,2.50
2022-09-18T15:08:51.593Z,6.03
2022-09-18T15:11:21.130Z,4.47
2022-09-18T15:13:51.312Z,3.90
2022-09-18T15:16:29.214Z,2.65
2022-09-18T15:18:57.761Z,2.92
2022-09-18T15:21:33.743Z,2.42
2022-09-18T15:24:02.706Z,2.30
2022-09-18T15:26:33.835Z,2.50
2022-09-18T15:29:02.744Z,1.70
2022-09-18T15:31:31.861Z,2.20
2022-09-18T15:34:04.979Z,2.08
2022-09-18T15:36:35.252Z,2.15
2022-09-18T15:39:05.209Z,1.90
2022-09-18T15:41:43.478Z,2.67
2022-09-18T15:44:38.948Z,2.15
2022-09-18T15:47:28.397Z,1.67
2022-09-18T15:49:56.938Z,1.65
2022-09-18T15:52:58.229Z,1.50
2022-09-18T15:55:31.912Z,1.60
2022-09-18T15:58:00.308Z,1.88
2022-09-18T16:00:34.335Z,1.55
2022-09-18T16:09:25.041Z,6.90
2022-09-18T16:11:53.142Z,2.40
2022-09-18T16:14:39.979Z,1.73
2022-09-18T16:17:29.128Z,1.50
2022-09-18T16:19:57.962Z,1.48
2022-09-18T16:22:29.644Z,10.93
2022-09-18T16:24:59.876Z,2.08
2022-09-18T16:27:27.697Z,1.90
2022-09-18T16:29:55.062Z,2.20
2022-09-18T16:32:22.359Z,1.90
2022-09-18T16:34:49.631Z,12.02
2022-09-18T16:37:17.948Z,2.08
2022-09-18T16:39:45.317Z,2.42
2022-09-18T16:42:18.841Z,2.63
2022-09-18T16:44:46.413Z,2.00
2022-09-18T16:47:15.375Z,2.50
2022-09-18T16:49:46.256Z,2.40
2022-09-18T16:52:13.922Z,2.40
2022-09-18T16:54:41.148Z,3.40
2022-09-18T16:57:13.135Z,2.65
2022-09-18T16:59:42.477Z,2.60
2022-09-18T17:02:10.910Z,3.00
2022-09-18T17:04:38.266Z,3.25
2022-09-18T17:07:06.586Z,2.75
2022-09-18T17:09:33.969Z,3.17
2022-09-18T17:12:01.785Z,3.53
2022-09-18T17:14:29.290Z,2.97
2022-09-18T17:16:56.792Z,3.40
2022-09-18T17:19:24.055Z,2.60
2022-09-18T17:21:51.411Z,2.83
2022-09-18T17:24:24.139Z,3.08
2022-09-18T17:26:53.997Z,2.90
2022-09-18T17:29:21.322Z,8.57
2022-09-18T17:31:48.663Z,2.45
2022-09-18T17:34:16.763Z,2.50
2022-09-18T17:36:47.655Z,1.90
2022-09-18T17:39:17.197Z,2.05
2022-09-18T17:41:45.947Z,1.52
2022-09-18T17:44:15.135Z,1.90
2022-09-18T17:46:42.614Z,2.17
2022-09-18T17:49:29.701Z,1.77
2022-09-18T17:51:57.881Z,1.75
2022-09-18T17:54:25.394Z,2.03
2022-09-18T17:56:52.617Z,2.58
2022-09-18T17:59:20.005Z,2.20
2022-09-18T18:01:49.063Z,1.83
2022-09-18T18:04:16.505Z,1.50
2022-09-18T18:06:48.095Z,1.50
2022-09-18T18:09:16.319Z,1.27
2022-09-18T18:11:46.540Z,1.33
2022-09-18T18:14:17.185Z,1.05
2022-09-18T18:16:44.933Z,1.88
2022-09-18T18:19:12.919Z,3.03
2022-09-18T18:21:41.728Z,1.08
2022-09-18T18:24:14.980Z,0.60
2022-09-18T18:26:48.455Z,0.75
2022-09-18T18:29:18.540Z,0.95
2022-09-18T18:31:48.279Z,0.50
2022-09-18T18:34:23.063Z,2.80
2022-09-18T18:36:50.911Z,0.90
2022-09-18T18:39:20.170Z,0.60
2022-09-18T18:41:50.407Z,0.50
2022-09-18T18:44:18.424Z,0.70
2022-09-18T18:46:50.180Z,0.60
2022-09-18T18:49:19.002Z,0.50
2022-09-18T18:51:47.941Z,0.60
2022-09-18T18:54:17.962Z,0.60
2022-09-18T18:56:46.354Z,1.60
2022-09-18T18:59:16.631Z,0.80
2022-09-18T19:01:44.565Z,0.50
2022-09-18T19:04:14.314Z,0.43
2022-09-18T19:06:43.666Z,0.63
2022-09-18T19:09:18.089Z,0.50
2022-09-18T19:11:49.692Z,0.50
2022-09-18T19:14:20.121Z,0.40
2022-09-18T19:16:48.887Z,0.60
2022-09-18T19:19:17.669Z,0.68
2022-09-18T19:21:45.031Z,0.50
2022-09-18T19:24:13.693Z,0.35
2022-09-18T19:26:43.379Z,0.40
2022-09-18T19:29:16.027Z,2.50
2022-09-18T19:31:44.839Z,1.90
2022-09-18T19:34:14.507Z,0.57
2022-09-18T19:36:44.170Z,3.65
2022-09-18T19:39:13.114Z,1.33
2022-09-18T19:41:46.692Z,1.08
2022-09-18T19:44:31.360Z,0.50
2022-09-18T19:47:02.391Z,0.52
2022-09-18T19:49:34.992Z,0.50
2022-09-18T19:52:03.288Z,0.65
2022-09-18T19:54:31.212Z,0.50
2022-09-18T19:56:59.218Z,0.40
2022-09-18T19:59:26.459Z,0.40
2022-09-18T20:01:55.482Z,0.55
2022-09-18T20:04:22.752Z,0.40
2022-09-18T20:06:49.968Z,0.60
2022-09-18T20:09:17.317Z,0.40
2022-09-18T20:11:48.125Z,0.40
2022-09-18T20:14:16.272Z,1.50
2022-09-18T20:16:43.652Z,5.80
2022-09-18T20:19:12.556Z,1.65
2022-09-18T20:21:39.875Z,0.70
2022-09-18T20:24:10.080Z,1.80
2022-09-18T20:26:37.696Z,0.50
2022-09-18T20:29:04.925Z,0.50
2022-09-18T20:31:32.833Z,0.43
2022-09-18T20:34:00.335Z,0.63
2022-09-18T20:36:28.680Z,0.40
2022-09-18T20:38:58.051Z,0.43
2022-09-18T20:41:30.016Z,0.70
2022-09-18T20:44:03.016Z,0.55
2022-09-18T20:46:36.950Z,0.45
2022-09-18T20:49:05.216Z,3.65
2022-09-18T20:51:36.629Z,2.42
2022-09-18T20:54:08.328Z,0.60
2022-09-18T20:56:42.051Z,0.50
2022-09-18T20:59:13.118Z,0.40
2022-09-18T21:01:41.992Z,0.57
2022-09-18T21:04:17.124Z,0.45
2022-09-18T21:06:47.056Z,0.43
2022-09-18T21:09:15.354Z,0.30
2022-09-18T21:11:44.796Z,0.30
2022-09-18T21:14:17.906Z,0.30
2022-09-18T21:16:45.422Z,0.50
2022-09-18T21:19:19.359Z,0.50
2022-09-18T21:21:47.863Z,0.50
2022-09-18T21:24:16.093Z,0.60
2022-09-18T21:26:46.020Z,0.30
2022-09-18T21:29:13.114Z,0.28
2022-09-18T21:31:44.636Z,0.30
2022-09-18T21:34:13.400Z,0.30
2022-09-18T21:36:43.393Z,0.30
2022-09-18T21:39:12.544Z,0.30
2022-09-18T21:41:42.135Z,0.40
2022-09-18T21:44:13.495Z,0.47
2022-09-18T21:46:42.005Z,0.30
2022-09-18T21:49:10.373Z,0.40
2022-09-18T21:51:42.308Z,3.42
2022-09-18T21:54:14.778Z,1.95
2022-09-18T21:56:42.748Z,1.55
2022-09-18T21:59:10.683Z,0.40
2022-09-18T22:01:38.307Z,0.40
2022-09-18T22:04:07.238Z,0.50
2022-09-18T22:06:42.022Z,0.50
2022-09-18T22:09:18.422Z,0.30
2022-09-18T22:11:48.626Z,0.40
2022-09-18T22:14:18.219Z,0.45
2022-09-18T22:16:48.574Z,0.50
2022-09-18T22:19:17.035Z,0.50
2022-09-18T22:21:46.621Z,0.60
2022-09-18T22:24:19.305Z,0.50
2022-09-18T22:26:49.001Z,2.72
2022-09-18T22:29:18.720Z,2.22
2022-09-18T22:31:46.754Z,1.58
2022-09-18T22:34:16.133Z,0.57
2022-09-18T22:36:44.387Z,0.70
2022-09-18T22:39:12.929Z,0.70
2022-09-18T22:41:40.653Z,0.50
2022-09-18T22:44:08.442Z,0.50
2022-09-18T22:46:37.644Z,0.57
2022-09-18T22:49:06.044Z,0.40
2022-09-18T22:51:33.280Z,0.43
2022-09-18T22:54:07.507Z,0.50
2022-09-18T22:56:40.889Z,0.40
2022-09-18T22:59:09.860Z,5.32
2022-09-18T23:01:46.492Z,4.20
2022-09-18T23:04:14.391Z,1.50
2022-09-18T23:06:42.736Z,1.00
2022-09-18T23:09:10.458Z,0.60
2022-09-18T23:11:37.872Z,0.60
2022-09-18T23:14:07.017Z,0.50
2022-09-18T23:16:36.232Z,0.40
2022-09-18T23:19:06.455Z,0.50
2022-09-18T23:21:34.880Z,0.47
2022-09-18T23:24:09.161Z,3.08
2022-09-18T23:26:41.913Z,4.65
2022-09-18T23:29:12.178Z,1.40
2022-09-18T23:31:42.342Z,0.60
2022-09-18T23:34:14.572Z,0.80
2022-09-18T23:36:47.452Z,0.50
2022-09-18T23:39:22.475Z,0.60
2022-09-18T23:41:50.793Z,0.65
2022-09-18T23:44:19.999Z,0.50
2022-09-18T23:46:47.711Z,0.50
2022-09-18T23:49:16.222Z,4.95
2022-09-18T23:51:48.325Z,3.55
2022-09-18T23:54:26.050Z,1.15
2022-09-18T23:56:54.678Z,0.90
2022-09-18T23:59:23.466Z,0.80
